sensor_id;sensor_type;location;lat;lon;timestamp;P1;durP1;ratioP1;P2;durP2;ratioP2
12878;SDS011;20617;49.476;10.986;2023-02-28T00:01:06;6.93;;;3.92;;
12878;SDS011;20617;49.476;10.986;2023-02-28T00:05:19;6.80;;;3.70;;
12878;SDS011;20617;49.476;10.986;2023-02-28T00:07:25;5.97;;;3.53;;
12878;SDS011;20617;49.476;10.986;2023-02-28T00:09:29;6.90;;;4.35;;
12878;SDS011;20617;49.476;10.986;2023-02-28T00:11:34;4.70;;;3.15;;
12878;SDS011;20617;49.476;10.986;2023-02-28T00:13:41;6.18;;;3.08;;
12878;SDS011;20617;49.476;10.986;2023-02-28T00:15:57;6.05;;;3.58;;
12878;SDS011;20617;49.476;10.986;2023-02-28T00:18:03;4.43;;;3.00;;
12878;SDS011;20617;49.476;10.986;2023-02-28T00:20:08;7.30;;;3.75;;
12878;SDS011;20617;49.476;10.986;2023-02-28T00:22:15;7.32;;;4.30;;
12878;SDS011;20617;49.476;10.986;2023-02-28T00:24:21;6.70;;;3.42;;
12878;SDS011;20617;49.476;10.986;2023-02-28T00:26:25;7.97;;;4.07;;
12878;SDS011;20617;49.476;10.986;2023-02-28T00:28:30;8.40;;;3.92;;
12878;SDS011;20617;49.476;10.986;2023-02-28T00:30:37;7.15;;;3.50;;
12878;SDS011;20617;49.476;10.986;2023-02-28T00:32:45;5.32;;;3.38;;
12878;SDS011;20617;49.476;10.986;2023-02-28T00:34:50;7.15;;;3.80;;
12878;SDS011;20617;49.476;10.986;2023-02-28T00:36:55;6.68;;;3.53;;
12878;SDS011;20617;49.476;10.986;2023-02-28T00:39:00;6.45;;;3.42;;
12878;SDS011;20617;49.476;10.986;2023-02-28T00:41:05;7.00;;;3.97;;
12878;SDS011;20617;49.476;10.986;2023-02-28T00:43:09;7.03;;;4.22;;
12878;SDS011;20617;49.476;10.986;2023-02-28T00:45:14;6.18;;;3.95;;
12878;SDS011;20617;49.476;10.986;2023-02-28T00:47:19;7.00;;;4.20;;
12878;SDS011;20617;49.476;10.986;2023-02-28T00:49:27;9.15;;;4.38;;
12878;SDS011;20617;49.476;10.986;2023-02-28T00:51:32;5.57;;;3.47;;
12878;SDS011;20617;49.476;10.986;2023-02-28T00:53:36;5.70;;;3.53;;
12878;SDS011;20617;49.476;10.986;2023-02-28T00:55:41;6.53;;;3.83;;
12878;SDS011;20617;49.476;10.986;2023-02-28T00:57:46;6.00;;;3.30;;
12878;SDS011;20617;49.476;10.986;2023-02-28T00:59:51;6.85;;;3.85;;
12878;SDS011;20617;49.476;10.986;2023-02-28T01:04:01;6.47;;;3.53;;
12878;SDS011;20617;49.476;10.986;2023-02-28T01:06:09;5.72;;;3.60;;
12878;SDS011;20617;49.476;10.986;2023-02-28T01:08:14;6.63;;;3.70;;
12878;SDS011;20617;49.476;10.986;2023-02-28T01:10:19;9.80;;;4.95;;
12878;SDS011;20617;49.476;10.986;2023-02-28T01:14:31;6.55;;;3.78;;
12878;SDS011;20617;49.476;10.986;2023-02-28T01:16:36;10.00;;;4.40;;
12878;SDS011;20617;49.476;10.986;2023-02-28T01:18:41;9.07;;;5.00;;
12878;SDS011;20617;49.476;10.986;2023-02-28T01:20:46;6.53;;;4.20;;
12878;SDS011;20617;49.476;10.986;2023-02-28T01:22:55;6.88;;;3.83;;
12878;SDS011;20617;49.476;10.986;2023-02-28T01:25:01;6.32;;;4.20;;
12878;SDS011;20617;49.476;10.986;2023-02-28T01:27:06;8.13;;;3.70;;
12878;SDS011;20617;49.476;10.986;2023-02-28T01:29:11;7.43;;;4.03;;
12878;SDS011;20617;49.476;10.986;2023-02-28T01:31:19;6.57;;;3.83;;
12878;SDS011;20617;49.476;10.986;2023-02-28T01:33:25;6.82;;;4.28;;
12878;SDS011;20617;49.476;10.986;2023-02-28T01:35:31;8.20;;;4.50;;
12878;SDS011;20617;49.476;10.986;2023-02-28T01:37:37;8.82;;;4.40;;
12878;SDS011;20617;49.476;10.986;2023-02-28T01:39:44;8.93;;;4.22;;
12878;SDS011;20617;49.476;10.986;2023-02-28T01:41:49;8.75;;;4.07;;
12878;SDS011;20617;49.476;10.986;2023-02-28T01:46:04;8.50;;;4.20;;
12878;SDS011;20617;49.476;10.986;2023-02-28T01:48:09;10.38;;;4.22;;
12878;SDS011;20617;49.476;10.986;2023-02-28T01:50:18;7.18;;;3.90;;
12878;SDS011;20617;49.476;10.986;2023-02-28T01:52:25;8.85;;;4.38;;
12878;SDS011;20617;49.476;10.986;2023-02-28T01:54:32;11.50;;;4.63;;
12878;SDS011;20617;49.476;10.986;2023-02-28T01:56:42;8.43;;;4.90;;
12878;SDS011;20617;49.476;10.986;2023-02-28T01:58:50;6.40;;;3.75;;
12878;SDS011;20617;49.476;10.986;2023-02-28T02:00:57;8.25;;;4.45;;
12878;SDS011;20617;49.476;10.986;2023-02-28T02:03:05;6.88;;;3.83;;
12878;SDS011;20617;49.476;10.986;2023-02-28T02:05:14;8.95;;;4.75;;
12878;SDS011;20617;49.476;10.986;2023-02-28T02:07:20;6.75;;;4.13;;
12878;SDS011;20617;49.476;10.986;2023-02-28T02:09:26;7.25;;;4.22;;
12878;SDS011;20617;49.476;10.986;2023-02-28T02:11:33;9.38;;;4.57;;
12878;SDS011;20617;49.476;10.986;2023-02-28T02:13:47;7.53;;;3.85;;
12878;SDS011;20617;49.476;10.986;2023-02-28T02:16:09;6.20;;;4.05;;
12878;SDS011;20617;49.476;10.986;2023-02-28T02:18:25;5.70;;;3.50;;
12878;SDS011;20617;49.476;10.986;2023-02-28T02:23:04;7.72;;;4.43;;
12878;SDS011;20617;49.476;10.986;2023-02-28T02:25:26;6.38;;;3.88;;
12878;SDS011;20617;49.476;10.986;2023-02-28T02:27:39;6.18;;;4.05;;
12878;SDS011;20617;49.476;10.986;2023-02-28T02:32:41;7.88;;;4.70;;
12878;SDS011;20617;49.476;10.986;2023-02-28T02:35:05;8.48;;;3.67;;
12878;SDS011;20617;49.476;10.986;2023-02-28T02:37:22;7.13;;;4.10;;
12878;SDS011;20617;49.476;10.986;2023-02-28T02:39:36;9.93;;;4.47;;
12878;SDS011;20617;49.476;10.986;2023-02-28T02:41:49;7.55;;;4.47;;
12878;SDS011;20617;49.476;10.986;2023-02-28T02:43:57;7.95;;;4.40;;
12878;SDS011;20617;49.476;10.986;2023-02-28T02:46:10;9.52;;;5.10;;
12878;SDS011;20617;49.476;10.986;2023-02-28T02:48:19;7.85;;;4.35;;
12878;SDS011;20617;49.476;10.986;2023-02-28T02:50:36;8.88;;;5.43;;
12878;SDS011;20617;49.476;10.986;2023-02-28T02:52:45;7.82;;;4.30;;
12878;SDS011;20617;49.476;10.986;2023-02-28T02:54:56;8.32;;;4.78;;
12878;SDS011;20617;49.476;10.986;2023-02-28T02:57:05;10.27;;;5.35;;
12878;SDS011;20617;49.476;10.986;2023-02-28T02:59:13;8.20;;;5.38;;
12878;SDS011;20617;49.476;10.986;2023-02-28T03:01:23;7.55;;;5.20;;
12878;SDS011;20617;49.476;10.986;2023-02-28T03:03:32;12.05;;;5.05;;
12878;SDS011;20617;49.476;10.986;2023-02-28T03:05:42;8.70;;;5.18;;
12878;SDS011;20617;49.476;10.986;2023-02-28T03:07:50;8.55;;;4.82;;
12878;SDS011;20617;49.476;10.986;2023-02-28T03:09:55;8.13;;;4.82;;
12878;SDS011;20617;49.476;10.986;2023-02-28T03:12:03;9.27;;;5.15;;
12878;SDS011;20617;49.476;10.986;2023-02-28T03:14:15;9.60;;;5.05;;
12878;SDS011;20617;49.476;10.986;2023-02-28T03:16:35;9.48;;;5.55;;
12878;SDS011;20617;49.476;10.986;2023-02-28T03:18:53;10.25;;;5.63;;
12878;SDS011;20617;49.476;10.986;2023-02-28T03:21:12;9.18;;;5.30;;
12878;SDS011;20617;49.476;10.986;2023-02-28T03:23:27;7.40;;;5.30;;
12878;SDS011;20617;49.476;10.986;2023-02-28T03:25:45;7.40;;;4.65;;
12878;SDS011;20617;49.476;10.986;2023-02-28T03:28:00;10.10;;;5.07;;
12878;SDS011;20617;49.476;10.986;2023-02-28T03:30:10;9.85;;;5.53;;
12878;SDS011;20617;49.476;10.986;2023-02-28T03:32:28;8.52;;;4.88;;
12878;SDS011;20617;49.476;10.986;2023-02-28T03:34:41;8.55;;;5.32;;
12878;SDS011;20617;49.476;10.986;2023-02-28T03:36:54;8.88;;;5.43;;
12878;SDS011;20617;49.476;10.986;2023-02-28T03:39:03;9.35;;;5.15;;
12878;SDS011;20617;49.476;10.986;2023-02-28T03:41:13;9.38;;;5.20;;
12878;SDS011;20617;49.476;10.986;2023-02-28T03:43:22;12.40;;;6.22;;
12878;SDS011;20617;49.476;10.986;2023-02-28T03:45:32;10.00;;;6.60;;
12878;SDS011;20617;49.476;10.986;2023-02-28T03:47:40;8.90;;;5.75;;
12878;SDS011;20617;49.476;10.986;2023-02-28T03:49:50;8.48;;;5.80;;
12878;SDS011;20617;49.476;10.986;2023-02-28T03:52:02;9.77;;;6.15;;
12878;SDS011;20617;49.476;10.986;2023-02-28T03:54:11;12.40;;;6.28;;
12878;SDS011;20617;49.476;10.986;2023-02-28T03:56:21;10.93;;;5.72;;
12878;SDS011;20617;49.476;10.986;2023-02-28T03:58:31;10.05;;;6.75;;
12878;SDS011;20617;49.476;10.986;2023-02-28T04:00:43;10.88;;;6.57;;
12878;SDS011;20617;49.476;10.986;2023-02-28T04:02:51;11.18;;;6.07;;
12878;SDS011;20617;49.476;10.986;2023-02-28T04:04:56;10.82;;;6.65;;
12878;SDS011;20617;49.476;10.986;2023-02-28T04:09:10;9.32;;;6.63;;
12878;SDS011;20617;49.476;10.986;2023-02-28T04:11:18;9.02;;;6.13;;
12878;SDS011;20617;49.476;10.986;2023-02-28T04:13:26;8.85;;;5.68;;
12878;SDS011;20617;49.476;10.986;2023-02-28T04:15:33;9.48;;;6.22;;
12878;SDS011;20617;49.476;10.986;2023-02-28T04:17:38;11.02;;;6.57;;
12878;SDS011;20617;49.476;10.986;2023-02-28T04:19:43;8.55;;;5.95;;
12878;SDS011;20617;49.476;10.986;2023-02-28T04:21:49;10.35;;;5.93;;
12878;SDS011;20617;49.476;10.986;2023-02-28T04:23:57;9.63;;;6.30;;
12878;SDS011;20617;49.476;10.986;2023-02-28T04:26:03;9.60;;;6.30;;
12878;SDS011;20617;49.476;10.986;2023-02-28T04:28:08;11.68;;;5.70;;
12878;SDS011;20617;49.476;10.986;2023-02-28T04:30:14;12.57;;;7.07;;
12878;SDS011;20617;49.476;10.986;2023-02-28T04:32:19;10.15;;;5.90;;
12878;SDS011;20617;49.476;10.986;2023-02-28T04:34:24;9.15;;;5.90;;
12878;SDS011;20617;49.476;10.986;2023-02-28T04:36:30;10.02;;;6.53;;
12878;SDS011;20617;49.476;10.986;2023-02-28T04:38:36;10.32;;;6.50;;
12878;SDS011;20617;49.476;10.986;2023-02-28T04:40:44;8.38;;;5.50;;
12878;SDS011;20617;49.476;10.986;2023-02-28T04:42:49;8.32;;;5.70;;
12878;SDS011;20617;49.476;10.986;2023-02-28T04:44:54;11.10;;;6.53;;
12878;SDS011;20617;49.476;10.986;2023-02-28T04:46:59;10.02;;;6.78;;
12878;SDS011;20617;49.476;10.986;2023-02-28T04:49:04;10.80;;;6.80;;
12878;SDS011;20617;49.476;10.986;2023-02-28T04:51:13;9.23;;;6.43;;
12878;SDS011;20617;49.476;10.986;2023-02-28T04:53:19;11.00;;;6.50;;
12878;SDS011;20617;49.476;10.986;2023-02-28T04:55:25;11.00;;;6.38;;
12878;SDS011;20617;49.476;10.986;2023-02-28T04:57:32;12.45;;;6.43;;
12878;SDS011;20617;49.476;10.986;2023-02-28T04:59:37;10.20;;;6.80;;
12878;SDS011;20617;49.476;10.986;2023-02-28T05:01:45;10.32;;;6.93;;
12878;SDS011;20617;49.476;10.986;2023-02-28T05:03:51;10.27;;;5.93;;
12878;SDS011;20617;49.476;10.986;2023-02-28T05:05:57;11.48;;;7.80;;
12878;SDS011;20617;49.476;10.986;2023-02-28T05:08:02;9.07;;;6.43;;
12878;SDS011;20617;49.476;10.986;2023-02-28T05:12:12;10.52;;;6.85;;
12878;SDS011;20617;49.476;10.986;2023-02-28T05:14:20;13.90;;;7.32;;
12878;SDS011;20617;49.476;10.986;2023-02-28T05:16:25;10.40;;;7.38;;
12878;SDS011;20617;49.476;10.986;2023-02-28T05:18:30;9.10;;;6.25;;
12878;SDS011;20617;49.476;10.986;2023-02-28T05:20:35;10.50;;;6.55;;
12878;SDS011;20617;49.476;10.986;2023-02-28T05:22:39;9.95;;;6.28;;
12878;SDS011;20617;49.476;10.986;2023-02-28T05:24:45;10.35;;;6.07;;
12878;SDS011;20617;49.476;10.986;2023-02-28T05:26:50;13.45;;;7.30;;
12878;SDS011;20617;49.476;10.986;2023-02-28T05:28:56;10.95;;;6.43;;
12878;SDS011;20617;49.476;10.986;2023-02-28T05:33:09;10.27;;;6.90;;
12878;SDS011;20617;49.476;10.986;2023-02-28T05:35:15;12.15;;;7.30;;
12878;SDS011;20617;49.476;10.986;2023-02-28T05:37:20;11.90;;;7.32;;
12878;SDS011;20617;49.476;10.986;2023-02-28T05:39:25;13.88;;;7.63;;
12878;SDS011;20617;49.476;10.986;2023-02-28T05:41:30;11.57;;;7.20;;
12878;SDS011;20617;49.476;10.986;2023-02-28T05:43:35;12.63;;;7.50;;
12878;SDS011;20617;49.476;10.986;2023-02-28T05:45:41;12.30;;;7.75;;
12878;SDS011;20617;49.476;10.986;2023-02-28T05:47:48;12.05;;;7.90;;
12878;SDS011;20617;49.476;10.986;2023-02-28T05:49:53;11.68;;;7.35;;
12878;SDS011;20617;49.476;10.986;2023-02-28T05:51:58;11.32;;;6.53;;
12878;SDS011;20617;49.476;10.986;2023-02-28T05:54:03;12.32;;;7.55;;
12878;SDS011;20617;49.476;10.986;2023-02-28T05:56:08;13.48;;;7.47;;
12878;SDS011;20617;49.476;10.986;2023-02-28T05:58:13;14.82;;;7.50;;
12878;SDS011;20617;49.476;10.986;2023-02-28T06:00:18;13.40;;;7.25;;
12878;SDS011;20617;49.476;10.986;2023-02-28T06:02:23;11.73;;;7.80;;
12878;SDS011;20617;49.476;10.986;2023-02-28T06:04:31;10.98;;;7.15;;
12878;SDS011;20617;49.476;10.986;2023-02-28T06:06:36;11.57;;;7.25;;
12878;SDS011;20617;49.476;10.986;2023-02-28T06:08:41;10.32;;;7.18;;
12878;SDS011;20617;49.476;10.986;2023-02-28T06:10:46;12.48;;;7.25;;
12878;SDS011;20617;49.476;10.986;2023-02-28T06:12:51;12.35;;;7.40;;
12878;SDS011;20617;49.476;10.986;2023-02-28T06:14:56;12.18;;;7.38;;
12878;SDS011;20617;49.476;10.986;2023-02-28T06:17:01;11.70;;;7.70;;
12878;SDS011;20617;49.476;10.986;2023-02-28T06:19:07;14.13;;;8.02;;
12878;SDS011;20617;49.476;10.986;2023-02-28T06:21:15;13.55;;;8.18;;
12878;SDS011;20617;49.476;10.986;2023-02-28T06:23:20;10.75;;;6.78;;
12878;SDS011;20617;49.476;10.986;2023-02-28T06:25:26;10.80;;;7.43;;
12878;SDS011;20617;49.476;10.986;2023-02-28T06:27:31;13.32;;;7.75;;
12878;SDS011;20617;49.476;10.986;2023-02-28T06:29:38;11.77;;;7.78;;
12878;SDS011;20617;49.476;10.986;2023-02-28T06:31:44;16.08;;;8.45;;
12878;SDS011;20617;49.476;10.986;2023-02-28T06:33:49;13.95;;;8.10;;
12878;SDS011;20617;49.476;10.986;2023-02-28T06:35:54;12.63;;;7.82;;
12878;SDS011;20617;49.476;10.986;2023-02-28T06:38:01;13.27;;;7.70;;
12878;SDS011;20617;49.476;10.986;2023-02-28T06:40:07;15.60;;;8.50;;
12878;SDS011;20617;49.476;10.986;2023-02-28T06:42:14;12.52;;;8.43;;
12878;SDS011;20617;49.476;10.986;2023-02-28T06:44:22;11.55;;;7.72;;
12878;SDS011;20617;49.476;10.986;2023-02-28T06:46:27;14.82;;;8.02;;
12878;SDS011;20617;49.476;10.986;2023-02-28T06:48:32;13.15;;;7.82;;
12878;SDS011;20617;49.476;10.986;2023-02-28T06:50:38;13.10;;;7.75;;
12878;SDS011;20617;49.476;10.986;2023-02-28T06:52:42;9.77;;;6.95;;
12878;SDS011;20617;49.476;10.986;2023-02-28T06:54:50;11.77;;;7.82;;
12878;SDS011;20617;49.476;10.986;2023-02-28T06:57:01;11.73;;;7.95;;
12878;SDS011;20617;49.476;10.986;2023-02-28T06:59:06;14.18;;;8.25;;
12878;SDS011;20617;49.476;10.986;2023-02-28T07:03:18;11.63;;;8.00;;
12878;SDS011;20617;49.476;10.986;2023-02-28T07:05:28;11.23;;;7.75;;
12878;SDS011;20617;49.476;10.986;2023-02-28T07:07:33;11.57;;;7.35;;
12878;SDS011;20617;49.476;10.986;2023-02-28T07:09:40;14.45;;;7.85;;
12878;SDS011;20617;49.476;10.986;2023-02-28T07:11:47;13.20;;;7.60;;
12878;SDS011;20617;49.476;10.986;2023-02-28T07:13:52;12.15;;;7.95;;
12878;SDS011;20617;49.476;10.986;2023-02-28T07:15:58;11.95;;;8.13;;
12878;SDS011;20617;49.476;10.986;2023-02-28T07:18:04;13.30;;;8.88;;
12878;SDS011;20617;49.476;10.986;2023-02-28T07:20:10;11.20;;;7.85;;
12878;SDS011;20617;49.476;10.986;2023-02-28T07:22:17;11.73;;;8.35;;
12878;SDS011;20617;49.476;10.986;2023-02-28T07:24:22;12.65;;;7.60;;
12878;SDS011;20617;49.476;10.986;2023-02-28T07:26:29;16.27;;;8.60;;
12878;SDS011;20617;49.476;10.986;2023-02-28T07:28:38;14.77;;;9.55;;
12878;SDS011;20617;49.476;10.986;2023-02-28T07:30:43;14.40;;;8.45;;
12878;SDS011;20617;49.476;10.986;2023-02-28T07:32:49;16.15;;;7.57;;
12878;SDS011;20617;49.476;10.986;2023-02-28T07:34:56;11.10;;;7.70;;
12878;SDS011;20617;49.476;10.986;2023-02-28T07:37:01;12.00;;;7.55;;
12878;SDS011;20617;49.476;10.986;2023-02-28T07:39:07;12.40;;;8.02;;
12878;SDS011;20617;49.476;10.986;2023-02-28T07:41:11;11.90;;;7.97;;
12878;SDS011;20617;49.476;10.986;2023-02-28T07:43:16;12.95;;;8.18;;
12878;SDS011;20617;49.476;10.986;2023-02-28T07:45:24;14.75;;;9.15;;
12878;SDS011;20617;49.476;10.986;2023-02-28T07:47:30;10.60;;;7.35;;
12878;SDS011;20617;49.476;10.986;2023-02-28T07:49:35;12.77;;;8.27;;
12878;SDS011;20617;49.476;10.986;2023-02-28T07:51:41;16.50;;;8.95;;
12878;SDS011;20617;49.476;10.986;2023-02-28T07:53:45;12.52;;;8.25;;
12878;SDS011;20617;49.476;10.986;2023-02-28T07:55:50;13.18;;;8.52;;
12878;SDS011;20617;49.476;10.986;2023-02-28T07:57:57;13.13;;;8.02;;
12878;SDS011;20617;49.476;10.986;2023-02-28T08:02:15;13.93;;;8.43;;
12878;SDS011;20617;49.476;10.986;2023-02-28T08:04:21;13.25;;;7.90;;
12878;SDS011;20617;49.476;10.986;2023-02-28T08:06:26;11.93;;;7.95;;
12878;SDS011;20617;49.476;10.986;2023-02-28T08:08:34;15.70;;;8.93;;
12878;SDS011;20617;49.476;10.986;2023-02-28T08:10:39;13.95;;;8.70;;
12878;SDS011;20617;49.476;10.986;2023-02-28T08:12:44;14.52;;;8.52;;
12878;SDS011;20617;49.476;10.986;2023-02-28T08:14:49;15.27;;;8.48;;
12878;SDS011;20617;49.476;10.986;2023-02-28T08:16:53;14.40;;;7.93;;
12878;SDS011;20617;49.476;10.986;2023-02-28T08:19:01;13.57;;;8.07;;
12878;SDS011;20617;49.476;10.986;2023-02-28T08:21:06;13.25;;;9.00;;
12878;SDS011;20617;49.476;10.986;2023-02-28T08:23:11;13.15;;;8.52;;
12878;SDS011;20617;49.476;10.986;2023-02-28T08:25:16;13.50;;;8.32;;
12878;SDS011;20617;49.476;10.986;2023-02-28T08:29:26;13.13;;;8.85;;
12878;SDS011;20617;49.476;10.986;2023-02-28T08:31:31;16.85;;;8.52;;
12878;SDS011;20617;49.476;10.986;2023-02-28T08:33:37;16.10;;;8.60;;
12878;SDS011;20617;49.476;10.986;2023-02-28T08:35:45;11.27;;;8.25;;
12878;SDS011;20617;49.476;10.986;2023-02-28T08:37:50;14.75;;;9.15;;
12878;SDS011;20617;49.476;10.986;2023-02-28T08:39:55;12.13;;;8.38;;
12878;SDS011;20617;49.476;10.986;2023-02-28T08:42:00;13.73;;;8.82;;
12878;SDS011;20617;49.476;10.986;2023-02-28T08:44:08;17.73;;;9.02;;
12878;SDS011;20617;49.476;10.986;2023-02-28T08:46:13;17.83;;;9.68;;
12878;SDS011;20617;49.476;10.986;2023-02-28T08:48:18;13.27;;;9.10;;
12878;SDS011;20617;49.476;10.986;2023-02-28T08:50:23;12.27;;;7.93;;
12878;SDS011;20617;49.476;10.986;2023-02-28T08:54:40;11.70;;;8.65;;
12878;SDS011;20617;49.476;10.986;2023-02-28T08:58:50;14.88;;;8.73;;
12878;SDS011;20617;49.476;10.986;2023-02-28T09:00:56;13.85;;;8.38;;
12878;SDS011;20617;49.476;10.986;2023-02-28T09:03:01;11.90;;;8.10;;
12878;SDS011;20617;49.476;10.986;2023-02-28T09:05:07;13.20;;;8.82;;
12878;SDS011;20617;49.476;10.986;2023-02-28T09:07:13;13.50;;;8.18;;
12878;SDS011;20617;49.476;10.986;2023-02-28T09:09:20;13.75;;;8.50;;
12878;SDS011;20617;49.476;10.986;2023-02-28T09:11:25;14.32;;;8.32;;
12878;SDS011;20617;49.476;10.986;2023-02-28T09:13:30;12.95;;;8.25;;
12878;SDS011;20617;49.476;10.986;2023-02-28T09:15:38;12.88;;;7.90;;
12878;SDS011;20617;49.476;10.986;2023-02-28T09:17:43;14.35;;;8.90;;
12878;SDS011;20617;49.476;10.986;2023-02-28T09:19:49;18.35;;;9.18;;
12878;SDS011;20617;49.476;10.986;2023-02-28T09:21:54;13.38;;;8.55;;
12878;SDS011;20617;49.476;10.986;2023-02-28T09:23:59;13.20;;;8.50;;
12878;SDS011;20617;49.476;10.986;2023-02-28T09:26:06;13.38;;;8.15;;
12878;SDS011;20617;49.476;10.986;2023-02-28T09:28:11;11.15;;;7.97;;
12878;SDS011;20617;49.476;10.986;2023-02-28T09:30:17;12.43;;;8.40;;
12878;SDS011;20617;49.476;10.986;2023-02-28T09:32:22;10.90;;;8.13;;
12878;SDS011;20617;49.476;10.986;2023-02-28T09:34:28;14.18;;;8.85;;
12878;SDS011;20617;49.476;10.986;2023-02-28T09:36:33;12.70;;;7.97;;
12878;SDS011;20617;49.476;10.986;2023-02-28T09:38:46;11.95;;;7.68;;
12878;SDS011;20617;49.476;10.986;2023-02-28T09:40:53;14.55;;;9.27;;
12878;SDS011;20617;49.476;10.986;2023-02-28T09:43:02;11.65;;;8.13;;
12878;SDS011;20617;49.476;10.986;2023-02-28T09:45:11;13.82;;;8.60;;
12878;SDS011;20617;49.476;10.986;2023-02-28T09:47:27;12.68;;;7.80;;
12878;SDS011;20617;49.476;10.986;2023-02-28T09:49:37;13.77;;;8.15;;
12878;SDS011;20617;49.476;10.986;2023-02-28T09:51:46;11.90;;;8.38;;
12878;SDS011;20617;49.476;10.986;2023-02-28T09:53:54;12.27;;;7.35;;
12878;SDS011;20617;49.476;10.986;2023-02-28T09:56:04;9.82;;;7.35;;
12878;SDS011;20617;49.476;10.986;2023-02-28T09:58:16;12.07;;;7.60;;
12878;SDS011;20617;49.476;10.986;2023-02-28T10:00:29;10.95;;;7.45;;
12878;SDS011;20617;49.476;10.986;2023-02-28T10:02:54;13.55;;;7.75;;
12878;SDS011;20617;49.476;10.986;2023-02-28T10:05:08;11.13;;;7.60;;
12878;SDS011;20617;49.476;10.986;2023-02-28T10:07:19;12.90;;;8.00;;
12878;SDS011;20617;49.476;10.986;2023-02-28T10:09:34;9.95;;;7.15;;
12878;SDS011;20617;49.476;10.986;2023-02-28T10:11:40;11.93;;;7.47;;
12878;SDS011;20617;49.476;10.986;2023-02-28T10:13:54;13.02;;;7.75;;
12878;SDS011;20617;49.476;10.986;2023-02-28T10:16:05;10.95;;;6.82;;
12878;SDS011;20617;49.476;10.986;2023-02-28T10:18:13;11.13;;;7.15;;
12878;SDS011;20617;49.476;10.986;2023-02-28T10:20:24;12.07;;;8.02;;
12878;SDS011;20617;49.476;10.986;2023-02-28T10:22:34;10.85;;;7.55;;
12878;SDS011;20617;49.476;10.986;2023-02-28T10:24:45;10.38;;;7.63;;
12878;SDS011;20617;49.476;10.986;2023-02-28T10:26:53;10.98;;;7.05;;
12878;SDS011;20617;49.476;10.986;2023-02-28T10:29:07;12.70;;;7.47;;
12878;SDS011;20617;49.476;10.986;2023-02-28T10:31:14;9.75;;;6.85;;
12878;SDS011;20617;49.476;10.986;2023-02-28T10:33:22;10.38;;;6.93;;
12878;SDS011;20617;49.476;10.986;2023-02-28T10:35:33;13.60;;;8.07;;
12878;SDS011;20617;49.476;10.986;2023-02-28T10:37:38;12.68;;;8.27;;
12878;SDS011;20617;49.476;10.986;2023-02-28T10:39:44;10.93;;;7.57;;
12878;SDS011;20617;49.476;10.986;2023-02-28T10:41:50;12.18;;;6.78;;
12878;SDS011;20617;49.476;10.986;2023-02-28T10:44:15;9.90;;;7.68;;
12878;SDS011;20617;49.476;10.986;2023-02-28T10:46:24;10.23;;;7.30;;
12878;SDS011;20617;49.476;10.986;2023-02-28T10:48:32;16.30;;;8.23;;
12878;SDS011;20617;49.476;10.986;2023-02-28T10:50:42;12.10;;;6.68;;
12878;SDS011;20617;49.476;10.986;2023-02-28T10:52:48;9.43;;;7.32;;
12878;SDS011;20617;49.476;10.986;2023-02-28T10:54:53;10.23;;;6.43;;
12878;SDS011;20617;49.476;10.986;2023-02-28T10:57:22;10.70;;;7.00;;
12878;SDS011;20617;49.476;10.986;2023-02-28T10:59:32;13.38;;;7.43;;
12878;SDS011;20617;49.476;10.986;2023-02-28T11:01:38;10.98;;;6.45;;
12878;SDS011;20617;49.476;10.986;2023-02-28T11:03:45;11.80;;;6.65;;
12878;SDS011;20617;49.476;10.986;2023-02-28T11:05:49;9.38;;;6.57;;
12878;SDS011;20617;49.476;10.986;2023-02-28T11:07:55;10.50;;;7.18;;
12878;SDS011;20617;49.476;10.986;2023-02-28T11:10:01;14.50;;;7.50;;
12878;SDS011;20617;49.476;10.986;2023-02-28T11:12:17;10.25;;;6.50;;
12878;SDS011;20617;49.476;10.986;2023-02-28T11:14:26;12.48;;;7.22;;
12878;SDS011;20617;49.476;10.986;2023-02-28T11:16:35;14.70;;;7.80;;
12878;SDS011;20617;49.476;10.986;2023-02-28T11:18:42;10.65;;;6.78;;
12878;SDS011;20617;49.476;10.986;2023-02-28T11:20:52;10.57;;;7.13;;
12878;SDS011;20617;49.476;10.986;2023-02-28T11:23:00;13.82;;;6.78;;
12878;SDS011;20617;49.476;10.986;2023-02-28T11:25:09;10.60;;;7.20;;
12878;SDS011;20617;49.476;10.986;2023-02-28T11:29:53;12.43;;;6.18;;
12878;SDS011;20617;49.476;10.986;2023-02-28T11:32:05;8.88;;;6.32;;
12878;SDS011;20617;49.476;10.986;2023-02-28T11:34:24;12.65;;;6.75;;
12878;SDS011;20617;49.476;10.986;2023-02-28T11:36:30;8.98;;;6.70;;
12878;SDS011;20617;49.476;10.986;2023-02-28T11:38:36;9.63;;;6.20;;
12878;SDS011;20617;49.476;10.986;2023-02-28T11:40:43;9.55;;;6.18;;
12878;SDS011;20617;49.476;10.986;2023-02-28T11:42:56;10.82;;;6.10;;
12878;SDS011;20617;49.476;10.986;2023-02-28T11:47:47;10.95;;;6.75;;
12878;SDS011;20617;49.476;10.986;2023-02-28T11:50:03;10.85;;;7.43;;
12878;SDS011;20617;49.476;10.986;2023-02-28T11:52:29;13.50;;;7.95;;
12878;SDS011;20617;49.476;10.986;2023-02-28T11:54:50;13.13;;;6.88;;
12878;SDS011;20617;49.476;10.986;2023-02-28T11:57:11;10.00;;;7.05;;
12878;SDS011;20617;49.476;10.986;2023-02-28T11:59:31;10.20;;;6.63;;
12878;SDS011;20617;49.476;10.986;2023-02-28T12:01:54;11.30;;;7.38;;
12878;SDS011;20617;49.476;10.986;2023-02-28T12:04:16;10.77;;;6.65;;
12878;SDS011;20617;49.476;10.986;2023-02-28T12:06:31;9.85;;;6.55;;
12878;SDS011;20617;49.476;10.986;2023-02-28T12:08:44;9.88;;;6.30;;
12878;SDS011;20617;49.476;10.986;2023-02-28T12:11:01;11.25;;;6.90;;
12878;SDS011;20617;49.476;10.986;2023-02-28T12:13:16;11.00;;;6.50;;
12878;SDS011;20617;49.476;10.986;2023-02-28T12:15:33;10.80;;;6.72;;
12878;SDS011;20617;49.476;10.986;2023-02-28T12:17:51;12.82;;;7.03;;
12878;SDS011;20617;49.476;10.986;2023-02-28T12:20:09;13.95;;;6.35;;
12878;SDS011;20617;49.476;10.986;2023-02-28T12:22:25;12.05;;;6.60;;
12878;SDS011;20617;49.476;10.986;2023-02-28T12:24:43;10.32;;;6.80;;
12878;SDS011;20617;49.476;10.986;2023-02-28T12:26:59;12.07;;;6.65;;
12878;SDS011;20617;49.476;10.986;2023-02-28T12:29:10;9.57;;;6.68;;
12878;SDS011;20617;49.476;10.986;2023-02-28T12:31:21;9.95;;;6.75;;
12878;SDS011;20617;49.476;10.986;2023-02-28T12:33:31;10.75;;;6.00;;
12878;SDS011;20617;49.476;10.986;2023-02-28T12:35:43;7.32;;;5.18;;
12878;SDS011;20617;49.476;10.986;2023-02-28T12:37:55;8.75;;;6.07;;
12878;SDS011;20617;49.476;10.986;2023-02-28T12:40:06;11.25;;;6.50;;
12878;SDS011;20617;49.476;10.986;2023-02-28T12:42:17;10.82;;;6.97;;
12878;SDS011;20617;49.476;10.986;2023-02-28T12:44:30;11.38;;;7.05;;
12878;SDS011;20617;49.476;10.986;2023-02-28T12:46:41;9.88;;;6.18;;
12878;SDS011;20617;49.476;10.986;2023-02-28T12:48:50;12.52;;;7.10;;
12878;SDS011;20617;49.476;10.986;2023-02-28T12:51:02;10.65;;;6.38;;
12878;SDS011;20617;49.476;10.986;2023-02-28T12:53:11;10.38;;;6.90;;
12878;SDS011;20617;49.476;10.986;2023-02-28T12:55:24;11.60;;;7.35;;
12878;SDS011;20617;49.476;10.986;2023-02-28T12:57:38;12.30;;;7.28;;
12878;SDS011;20617;49.476;10.986;2023-02-28T12:59:48;16.02;;;7.85;;
12878;SDS011;20617;49.476;10.986;2023-02-28T13:02:01;12.80;;;7.18;;
12878;SDS011;20617;49.476;10.986;2023-02-28T13:07:08;10.45;;;6.80;;
12878;SDS011;20617;49.476;10.986;2023-02-28T13:09:27;9.75;;;7.07;;
12878;SDS011;20617;49.476;10.986;2023-02-28T13:11:38;10.98;;;6.88;;
12878;SDS011;20617;49.476;10.986;2023-02-28T13:13:44;13.32;;;7.00;;